This is the latest recevied weather packets stored in our database for station/object N4TLC. If no packets are shown the sender has not sent any weather packets the latest 10 day(s).
| Time | Temp. | Humidity | Pressure | Rain* | Wind** | Luminosity | Snow |
|---|---|---|---|---|---|---|---|
| 1777761719 | 16.11° C | 41% | 1013.8 hPa | 0 mm | - | 207 W/m² | - |
| 1777761417 | 16.67° C | 38% | 1013.9 hPa | 0 mm | - | 102 W/m² | - |
| 1777761115 | 17.22° C | 36% | 1013.7 hPa | 0 mm | - | 119 W/m² | - |
| 1777760812 | 17.78° C | 35% | 1013.6 hPa | 0 mm | - | 218 W/m² | - |
| 1777760508 | 17.78° C | 35% | 1013.7 hPa | 0 mm | - | 242 W/m² | - |
| 1777760204 | 17.78° C | 35% | 1013.3 hPa | 0 mm | - | 265 W/m² | - |
| 1777759901 | 17.78° C | 36% | 1013.4 hPa | 0 mm | - | 284 W/m² | - |
| 1777759597 | 17.78° C | 36% | 1013.4 hPa | 0 mm | - | 306 W/m² | - |
| 1777759294 | 18.33° C | 35% | 1013.3 hPa | 0 mm | - | 331 W/m² | - |
| 1777758991 | 18.33° C | 36% | 1013.5 hPa | 0 mm | - | 360 W/m² | - |
| 1777758688 | 18.33° C | 35% | 1013.3 hPa | 0 mm | - | 390 W/m² | - |
| 1777758385 | 17.78° C | 36% | 1013.2 hPa | 0 mm | - | 427 W/m² | - |
| 1777758082 | 17.78° C | 35% | 1013.2 hPa | 0 mm | - | 475 W/m² | - |
| 1777757780 | 17.78° C | 35% | 1013.5 hPa | 0 mm | - | 494 W/m² | - |
| 1777757477 | 17.78° C | 35% | 1013.3 hPa | 0 mm | - | 577 W/m² | - |
| 1777757176 | 17.78° C | 35% | 1013.4 hPa | 0 mm | - | 633 W/m² | - |
| 1777756874 | 17.22° C | 35% | 1013.4 hPa | 0 mm | - | 641 W/m² | - |
| 1777756568 | 16.67° C | 37% | 1013.3 hPa | 0 mm | - | 530 W/m² | - |
| 1777756266 | 16.67° C | 36% | 1013.2 hPa | 0 mm | - | 438 W/m² | - |
| 1777755963 | 16.67° C | 37% | 1013.5 hPa | 0 mm | - | 604 W/m² | - |
| 1777755660 | 16.67° C | 36% | 1013.2 hPa | 0 mm | - | 611 W/m² | - |
| 1777755356 | 16.67° C | 36% | 1013.2 hPa | 0 mm | - | 560 W/m² | - |
| 1777755053 | 16.67° C | 36% | 1013.5 hPa | 0 mm | - | 644 W/m² | - |
| 1777754750 | 15.56° C | 40% | 1013.5 hPa | 0 mm | - | 769 W/m² | - |
| 1777754448 | 15.56° C | 40% | 1013.4 hPa | 0 mm | - | 357 W/m² | - |
* Rain latest hour (hover to see other rain measurements)
** Current wind speed in m/s (hover to see current wind gust speed)